Mount Pleasant, MI

6:56 AM EST on February 07, 2016 (GMT -0500)
Chippewa Township | | Change Station
CLOSE
Current Station
Personal Weather Station
Location: Mt Pleasant, MI
Elevation: 755 ft
Nearby Weather Stations

Elev 755 ft 43.63 °N, 84.65 °W | Updated 1 minute ago

Overcast
Overcast
33.1 °F
Feels Like 29 °F
N
4.0
Wind Variable Wind from SSE
Gusts 5.0 mph

Today
High -- | Low -- °F
--% Chance of Precip.
Yesterday
High -- | Low -- °F
Precip. -- in
Pressure 29.89 in
Visibility 10.0 miles
Clouds Clear
Windchill 29 °F
Dew Point 6 °F
Humidity 32%
Rainfall Not available.
Snow Depth Not available.
7:48 AM 5:57 PM
Waning Crescent, 2% visible
METAR KMOP 071135Z AUTO 16004KT 10SM CLR 01/M02 A2989 RMK AO2 T00071020
Pressure 29.89 in
Visibility 10.0 miles
Clouds Clear
Windchill 29 °F
Dew Point 6 °F
Humidity 32%
Rainfall Not available.
Snow Depth Not available.
7:48 AM 5:57 PM
Waning Crescent, 2% visible
METAR KMOP 071135Z AUTO 16004KT 10SM CLR 01/M02 A2989 RMK AO2 T00071020

10-Day Weather Forecast

Almanac

Astronomy

Feb. 07, 2016 Rise Set
Actual Time
Civil Twilight
Nautical Twilight
Astronomical Twilight
Moon
Length of Visible Light
Length of Day
Tomorrow will be .
, % of the Moon is Illuminated

Today's Extremes

State Highs State Lows

Community

WunderPhotos

Upload Photos

1,891,182 photos uploaded!

WunderBlog® & News

Nearby

Air Quality

  Air Quality AQ Index Pollutant
Not available.

Snow Depth

Station Depth Elevation

Earthquake Activity

City Distance Mag. Time & Date
Minimum magnitude displayed is 2.5.

Coastal Water Temperatures

Place Temperature

Stations

Nearby Weather Stations

Station Location Temp. Windchill Dew Point Humidity Wind Precip. Elev Updated Type
                   

Watches & Warnings

There are currently no watches in effect.